createdAt,value
2019-05-09T00:01:18.589Z,99098.98
2019-05-09T00:03:49.620Z,99097.44
2019-05-09T00:06:19.526Z,99101.16
2019-05-09T00:08:49.291Z,99103.48
2019-05-09T00:11:19.164Z,99101.64
2019-05-09T00:13:49.013Z,99105.23
2019-05-09T00:16:18.884Z,99110.48
2019-05-09T00:18:48.723Z,99107.46
2019-05-09T00:21:23.889Z,99111.24
2019-05-09T00:23:54.182Z,99113.19
2019-05-09T00:26:24.171Z,99112.61
2019-05-09T00:28:58.040Z,99112.99
2019-05-09T00:31:38.449Z,99111.86
2019-05-09T00:34:10.577Z,99107.28
2019-05-09T00:36:43.258Z,99111.25
2019-05-09T00:39:13.430Z,99111.25
2019-05-09T00:41:43.889Z,99106.98
2019-05-09T00:44:20.422Z,99111.44
2019-05-09T00:46:56.160Z,99110.84
2019-05-09T00:49:26.775Z,99111.83
2019-05-09T00:51:56.544Z,99115.80
2019-05-09T00:54:26.321Z,99115.55
2019-05-09T00:56:57.513Z,99129.06
2019-05-09T00:59:27.429Z,99132.84
2019-05-09T01:01:57.529Z,99123.87
2019-05-09T01:04:27.755Z,99133.25
2019-05-09T01:06:57.640Z,99132.19
2019-05-09T01:09:27.426Z,99119.41
2019-05-09T01:11:57.420Z,99109.14
2019-05-09T01:14:27.479Z,99112.03
2019-05-09T01:16:57.551Z,99118.05
2019-05-09T01:19:27.901Z,99114.67
2019-05-09T01:21:57.858Z,99114.86
2019-05-09T01:24:27.708Z,99120.41
2019-05-09T01:26:57.555Z,99128.84
2019-05-09T01:29:28.378Z,99125.44
2019-05-09T01:32:00.137Z,99125.35
2019-05-09T01:34:33.138Z,99124.28
2019-05-09T01:37:07.278Z,99127.08
2019-05-09T01:39:37.865Z,99129.32
2019-05-09T01:42:08.081Z,99131.42
2019-05-09T01:44:37.925Z,99127.55
2019-05-09T01:47:07.877Z,99132.87
2019-05-09T01:49:38.067Z,99131.43
2019-05-09T01:52:08.174Z,99137.80
2019-05-09T01:54:39.653Z,99130.42
2019-05-09T01:57:09.508Z,99132.37
2019-05-09T01:59:39.548Z,99134.77
2019-05-09T02:02:09.315Z,99130.61
2019-05-09T02:04:39.456Z,99136.44
2019-05-09T02:07:09.201Z,99137.70
2019-05-09T02:09:39.424Z,99136.91
2019-05-09T02:12:09.612Z,99139.05
2019-05-09T02:14:49.332Z,99130.61
2019-05-09T02:17:55.858Z,99131.30
2019-05-09T02:20:13.774Z,99132.66
2019-05-09T02:22:43.902Z,99137.23
2019-05-09T02:25:14.164Z,99135.97
2019-05-09T02:27:43.929Z,99135.55
2019-05-09T02:30:15.533Z,99133.16
2019-05-09T02:32:45.979Z,99131.78
2019-05-09T02:35:16.369Z,99130.70
2019-05-09T02:37:49.581Z,99134.20
2019-05-09T02:40:18.726Z,99136.34
2019-05-09T02:42:49.322Z,99127.62
2019-05-09T02:45:19.880Z,99126.87
2019-05-09T02:47:49.910Z,99120.16
2019-05-09T02:50:19.886Z,99118.90
2019-05-09T02:52:49.743Z,99127.71
2019-05-09T02:55:19.788Z,99127.34
2019-05-09T02:57:51.698Z,99121.23
2019-05-09T03:00:39.527Z,99123.38
2019-05-09T03:03:12.995Z,99127.53
2019-05-09T03:05:43.303Z,99131.78
2019-05-09T03:08:13.646Z,99130.80
2019-05-09T03:10:43.566Z,99130.70
2019-05-09T03:13:13.736Z,99134.67
2019-05-09T03:15:44.213Z,99133.70
2019-05-09T03:18:14.830Z,99146.28
2019-05-09T03:21:19.379Z,99148.62
2019-05-09T03:23:49.167Z,99149.38
2019-05-09T03:26:24.250Z,99154.31
2019-05-09T03:29:13.049Z,99152.45
2019-05-09T03:31:43.523Z,99159.72
2019-05-09T03:34:14.416Z,99157.90
2019-05-09T03:36:44.625Z,99155.89
2019-05-09T03:39:14.392Z,99156.64
2019-05-09T03:41:44.712Z,99157.52
2019-05-09T03:44:15.100Z,99155.38
2019-05-09T03:47:02.658Z,99159.44
2019-05-09T03:49:32.790Z,99166.25
2019-05-09T03:52:03.414Z,99165.08
2019-05-09T03:54:33.481Z,99164.02
2019-05-09T03:57:10.629Z,99165.69
2019-05-09T03:59:40.691Z,99174.12
2019-05-09T04:02:10.752Z,99177.91
2019-05-09T04:04:40.615Z,99176.14
2019-05-09T04:07:11.449Z,99178.00
2019-05-09T04:09:42.194Z,99175.98
2019-05-09T04:12:12.660Z,99181.88
2019-05-09T04:14:42.695Z,99184.99
2019-05-09T04:17:13.052Z,99197.69
2019-05-09T04:19:42.848Z,99195.17
2019-05-09T04:22:12.866Z,99196.94
2019-05-09T04:24:43.294Z,99197.69
2019-05-09T04:27:20.695Z,99189.05
2019-05-09T04:29:50.561Z,99194.28
2019-05-09T04:32:20.685Z,99191.06
2019-05-09T04:34:50.559Z,99186.59
2019-05-09T04:37:20.349Z,99196.66
2019-05-09T04:39:53.915Z,99206.36
2019-05-09T04:42:22.012Z,99204.16
2019-05-09T04:45:03.026Z,99207.75
2019-05-09T04:47:33.882Z,99203.79
2019-05-09T04:50:01.010Z,99212.90
2019-05-09T04:52:30.809Z,99208.84
2019-05-09T04:55:00.572Z,99210.23
2019-05-09T04:57:30.817Z,99212.46
2019-05-09T05:00:01.111Z,99211.02
2019-05-09T05:02:40.139Z,99220.69
2019-05-09T05:05:10.437Z,99215.92
2019-05-09T05:07:41.256Z,99220.59
2019-05-09T05:10:11.353Z,99216.63
2019-05-09T05:12:41.851Z,99217.26
2019-05-09T05:15:12.558Z,99219.12
2019-05-09T05:17:42.407Z,99219.41
2019-05-09T05:20:18.406Z,99216.13
2019-05-09T05:22:58.145Z,99212.38
2019-05-09T05:25:27.993Z,99211.53
2019-05-09T05:27:58.238Z,99209.50
2019-05-09T05:30:28.523Z,99215.23
2019-05-09T05:33:08.789Z,99212.52
2019-05-09T05:35:57.407Z,99210.50
2019-05-09T05:38:27.539Z,99213.88
2019-05-09T05:40:57.916Z,99215.42
2019-05-09T05:43:40.503Z,99218.06
2019-05-09T05:46:22.683Z,99214.67
2019-05-09T05:48:52.943Z,99214.95
2019-05-09T05:51:22.753Z,99217.89
2019-05-09T05:53:52.960Z,99224.56
2019-05-09T05:56:22.990Z,99230.80
2019-05-09T05:58:53.077Z,99226.33
2019-05-09T06:01:23.258Z,99235.34
2019-05-09T06:03:53.085Z,99227.01
2019-05-09T06:06:23.054Z,99235.62
2019-05-09T06:08:52.813Z,99240.39
2019-05-09T06:11:22.957Z,99236.80
2019-05-09T06:13:57.558Z,99237.56
2019-05-09T06:16:24.740Z,99241.03
2019-05-09T06:18:55.066Z,99238.61
2019-05-09T06:21:25.109Z,99240.38
2019-05-09T06:23:55.227Z,99242.39
2019-05-09T06:26:25.179Z,99236.00
2019-05-09T06:28:54.993Z,99242.90
2019-05-09T06:31:25.326Z,99237.27
2019-05-09T06:33:57.578Z,99254.25
2019-05-09T06:36:28.321Z,99192.97
2019-05-09T06:38:59.019Z,99255.10
2019-05-09T06:41:29.032Z,99258.47
2019-05-09T06:44:14.319Z,99257.81
2019-05-09T06:46:41.926Z,99262.48
2019-05-09T06:49:26.863Z,99258.59
2019-05-09T06:51:47.640Z,99264.55
2019-05-09T06:54:17.815Z,99262.90
2019-05-09T06:56:47.670Z,99263.22
2019-05-09T06:59:19.134Z,99267.57
2019-05-09T07:02:04.311Z,99267.38
2019-05-09T07:04:40.937Z,99263.41
2019-05-09T07:07:17.813Z,99266.32
2019-05-09T07:09:51.560Z,99267.47
2019-05-09T07:12:21.615Z,99267.36
2019-05-09T07:14:51.732Z,99272.05
2019-05-09T07:17:21.656Z,99268.11
2019-05-09T07:19:51.716Z,99270.27
2019-05-09T07:22:40.608Z,99270.11
2019-05-09T07:25:14.785Z,99271.81
2019-05-09T07:27:45.084Z,99261.05
2019-05-09T07:30:51.316Z,99265.46
2019-05-09T07:33:28.990Z,99264.55
2019-05-09T07:35:58.852Z,99257.79
2019-05-09T07:38:29.876Z,99259.99
2019-05-09T07:41:00.589Z,99264.63
2019-05-09T07:43:30.560Z,99262.19
2019-05-09T07:46:12.361Z,99268.48
2019-05-09T07:48:43.237Z,99267.56
2019-05-09T07:51:13.197Z,99266.61
2019-05-09T07:53:44.069Z,99277.15
2019-05-09T07:56:14.226Z,99275.51
2019-05-09T07:58:44.208Z,99274.45
2019-05-09T08:01:14.423Z,99281.84
2019-05-09T08:03:44.693Z,99289.20
2019-05-09T08:06:14.551Z,99287.89
2019-05-09T08:08:47.452Z,99284.87
2019-05-09T08:11:18.029Z,99284.85
2019-05-09T08:13:48.809Z,99287.72
2019-05-09T08:16:19.192Z,99289.55
2019-05-09T08:18:49.096Z,99255.39
2019-05-09T08:21:18.928Z,99297.95
2019-05-09T08:23:48.881Z,99301.16
2019-05-09T08:26:19.063Z,99285.11
2019-05-09T08:28:49.595Z,99290.33
2019-05-09T08:31:20.460Z,99284.48
2019-05-09T08:33:50.624Z,99291.87
2019-05-09T08:36:20.740Z,99293.95
2019-05-09T08:38:50.683Z,99282.28
2019-05-09T08:41:20.677Z,99281.89
2019-05-09T08:43:50.465Z,99291.39
2019-05-09T08:46:20.532Z,99275.95
2019-05-09T08:48:50.302Z,99282.84
2019-05-09T08:51:38.439Z,99278.33
2019-05-09T08:54:06.330Z,99277.61
2019-05-09T08:56:38.580Z,99285.37
2019-05-09T08:59:08.377Z,99286.36
2019-05-09T09:01:54.384Z,99286.90
2019-05-09T09:04:10.302Z,99283.09
2019-05-09T09:06:40.186Z,99278.55
2019-05-09T09:09:10.622Z,99281.28
2019-05-09T09:11:40.851Z,99280.09
2019-05-09T09:14:10.825Z,99282.03
2019-05-09T09:16:41.931Z,99281.54
2019-05-09T09:19:12.930Z,99283.30
2019-05-09T09:21:46.448Z,99280.12
2019-05-09T09:24:14.692Z,99280.44
2019-05-09T09:26:44.578Z,99276.00
2019-05-09T09:29:14.915Z,99279.97
2019-05-09T09:31:44.725Z,99275.25
2019-05-09T09:34:14.490Z,99278.28
2019-05-09T09:36:44.619Z,99280.36
2019-05-09T09:39:15.469Z,99272.91
2019-05-09T09:41:45.240Z,99281.22
2019-05-09T09:44:15.049Z,99276.25
2019-05-09T09:46:44.894Z,99278.79
2019-05-09T09:49:15.191Z,99272.91
2019-05-09T09:51:45.491Z,99267.36
2019-05-09T09:54:15.437Z,99264.84
2019-05-09T09:56:49.495Z,99267.06
2019-05-09T09:59:42.820Z,99268.25
2019-05-09T10:02:13.543Z,99268.19
2019-05-09T10:04:44.497Z,99272.94
2019-05-09T10:07:14.415Z,99272.97
2019-05-09T10:09:44.535Z,99271.70
2019-05-09T10:12:14.801Z,99277.90
2019-05-09T10:14:49.112Z,99268.53
2019-05-09T10:17:41.224Z,99280.38
2019-05-09T10:20:18.207Z,99271.42
2019-05-09T10:22:58.685Z,99276.14
2019-05-09T10:25:19.862Z,99271.75
2019-05-09T10:27:49.840Z,99271.53
2019-05-09T10:30:24.424Z,99279.16
2019-05-09T10:32:54.314Z,99271.33
2019-05-09T10:35:24.243Z,99269.48
2019-05-09T10:37:54.012Z,99262.73
2019-05-09T10:40:24.367Z,99268.75
2019-05-09T10:43:35.638Z,99267.48
2019-05-09T10:46:19.111Z,99276.72
2019-05-09T10:48:53.767Z,99271.48
2019-05-09T10:51:24.027Z,99270.69
2019-05-09T10:53:53.831Z,99274.90
2019-05-09T10:56:23.801Z,99272.80
2019-05-09T10:58:53.845Z,99262.81
2019-05-09T11:01:23.804Z,99267.86
2019-05-09T11:03:53.676Z,99276.39
2019-05-09T11:06:23.872Z,99276.78
2019-05-09T11:08:53.811Z,99269.09
2019-05-09T11:11:23.757Z,99265.89
2019-05-09T11:13:53.600Z,99261.94
2019-05-09T11:16:38.712Z,99261.84
2019-05-09T11:18:55.031Z,99259.89
2019-05-09T11:21:25.219Z,99264.77
2019-05-09T11:23:55.142Z,99225.67
2019-05-09T11:26:25.170Z,99261.62
2019-05-09T11:28:55.117Z,99258.94
2019-05-09T11:31:25.265Z,99256.08
2019-05-09T11:33:57.641Z,99255.41
2019-05-09T11:36:27.204Z,99250.31
2019-05-09T11:39:00.402Z,99247.13
2019-05-09T11:41:29.632Z,99250.95
2019-05-09T11:44:00.164Z,99257.61
2019-05-09T11:46:30.642Z,99245.21
2019-05-09T11:49:00.584Z,99256.13
2019-05-09T11:51:30.725Z,99255.95
2019-05-09T11:54:00.739Z,99258.30
2019-05-09T11:56:30.634Z,99262.05
2019-05-09T11:59:00.429Z,99269.03
2019-05-09T12:01:30.401Z,99268.16
2019-05-09T12:04:00.193Z,99263.00
2019-05-09T12:06:30.163Z,99265.95
2019-05-09T12:09:00.122Z,99257.61
2019-05-09T12:11:30.122Z,99262.38
2019-05-09T12:14:00.397Z,99257.72
2019-05-09T12:16:30.304Z,99250.47
2019-05-09T12:19:00.114Z,99258.36
2019-05-09T12:21:29.883Z,99256.25
2019-05-09T12:23:59.775Z,99258.30
2019-05-09T12:26:29.883Z,99254.46
2019-05-09T12:29:00.036Z,99256.84
2019-05-09T12:31:30.278Z,99266.20
2019-05-09T12:34:00.152Z,99262.50
2019-05-09T12:36:29.991Z,99258.80
2019-05-09T12:38:59.844Z,99261.02
2019-05-09T12:41:31.473Z,99257.81
2019-05-09T12:44:01.324Z,99262.10
2019-05-09T12:46:31.124Z,99263.44
2019-05-09T12:49:01.468Z,99262.84
2019-05-09T12:51:31.284Z,99254.45
2019-05-09T12:54:01.140Z,99255.50
2019-05-09T12:56:31.672Z,99256.05
2019-05-09T12:59:01.403Z,99259.92
2019-05-09T13:01:31.264Z,99260.16
2019-05-09T13:04:01.024Z,99264.74
2019-05-09T13:06:30.897Z,99260.56
2019-05-09T13:09:00.970Z,99263.95
2019-05-09T13:11:31.819Z,99262.54
2019-05-09T13:14:01.576Z,99254.87
2019-05-09T13:16:53.943Z,99259.16
2019-05-09T13:19:25.256Z,99266.24
2019-05-09T13:21:58.575Z,99262.16
2019-05-09T13:24:28.362Z,99268.66
2019-05-09T13:26:58.642Z,99264.84
2019-05-09T13:29:29.626Z,99268.54
2019-05-09T13:31:59.589Z,99263.77
2019-05-09T13:34:29.668Z,99257.45
2019-05-09T13:36:59.553Z,99268.87
2019-05-09T13:39:30.364Z,99259.82
2019-05-09T13:42:00.405Z,99269.91
2019-05-09T13:44:30.592Z,99268.14
2019-05-09T13:47:00.786Z,99264.88
2019-05-09T13:49:30.678Z,99257.16
2019-05-09T13:52:04.724Z,99253.94
2019-05-09T13:54:32.003Z,99258.47
2019-05-09T13:57:01.883Z,99253.52
2019-05-09T13:59:31.779Z,99265.88
2019-05-09T14:02:01.656Z,99257.59
2019-05-09T14:04:31.451Z,99261.73
2019-05-09T14:07:01.253Z,99267.81
2019-05-09T14:09:31.045Z,99270.56
2019-05-09T14:12:01.597Z,99261.92
2019-05-09T14:14:31.485Z,99267.13
2019-05-09T14:17:01.424Z,99264.63
2019-05-09T14:19:45.080Z,99271.08
2019-05-09T14:22:04.535Z,99271.52
2019-05-09T14:24:34.377Z,99273.56
2019-05-09T14:27:04.325Z,99274.19
2019-05-09T14:29:34.195Z,99273.64
2019-05-09T14:32:05.623Z,99270.55
2019-05-09T14:34:38.177Z,99275.83
2019-05-09T14:37:09.671Z,99277.83
2019-05-09T14:39:54.553Z,99274.14
2019-05-09T14:42:11.496Z,99275.50
2019-05-09T14:44:41.689Z,99282.48
2019-05-09T14:47:11.767Z,99278.58
2019-05-09T14:49:44.650Z,99267.42
2019-05-09T14:52:13.535Z,99272.22
2019-05-09T14:54:43.571Z,99269.16
2019-05-09T14:57:13.441Z,99271.98
2019-05-09T14:59:43.478Z,99269.87
2019-05-09T15:02:13.424Z,99264.81
2019-05-09T15:04:43.199Z,99266.39
2019-05-09T15:07:13.214Z,99271.98
2019-05-09T15:09:43.009Z,99276.16
2019-05-09T15:12:12.796Z,99268.94
2019-05-09T15:14:43.018Z,99273.09
2019-05-09T15:17:13.088Z,99280.19
2019-05-09T15:19:56.368Z,99286.99
2019-05-09T15:22:14.912Z,99296.11
2019-05-09T15:24:45.004Z,99300.66
2019-05-09T15:27:17.552Z,99293.29
2019-05-09T15:29:48.650Z,99299.99
2019-05-09T15:32:18.498Z,99296.77
2019-05-09T15:34:48.850Z,99300.98
2019-05-09T15:37:18.908Z,99304.92
2019-05-09T15:39:49.517Z,99315.00
2019-05-09T15:42:19.743Z,99319.98
2019-05-09T15:44:49.860Z,99310.69
2019-05-09T15:47:24.373Z,99313.73
2019-05-09T15:49:54.470Z,99308.20
2019-05-09T15:52:24.679Z,99305.23
2019-05-09T15:54:54.767Z,99303.69
2019-05-09T15:57:24.774Z,99309.33
2019-05-09T15:59:54.632Z,99314.42
2019-05-09T16:02:24.891Z,99320.12
2019-05-09T16:04:55.052Z,99320.94
2019-05-09T16:07:25.064Z,99315.42
2019-05-09T16:09:54.972Z,99315.30
2019-05-09T16:12:27.597Z,99320.39
2019-05-09T16:14:56.571Z,99321.94
2019-05-09T16:17:28.528Z,99314.68
2019-05-09T16:19:58.182Z,99318.55
2019-05-09T16:22:28.541Z,99318.48
2019-05-09T16:24:58.439Z,99321.52
2019-05-09T16:27:28.285Z,99315.27
2019-05-09T16:29:58.871Z,99315.27
2019-05-09T16:32:28.821Z,99324.11
2019-05-09T16:34:58.631Z,99322.10
2019-05-09T16:37:28.523Z,99327.69
2019-05-09T16:39:58.289Z,99329.64
2019-05-09T16:42:28.487Z,99329.77
2019-05-09T16:44:59.457Z,99330.03
2019-05-09T16:47:29.389Z,99328.77
2019-05-09T16:49:59.295Z,99323.48
2019-05-09T16:52:30.953Z,99323.03
2019-05-09T16:55:11.042Z,99333.06
2019-05-09T16:57:40.901Z,99333.84
2019-05-09T17:00:13.451Z,99331.33
2019-05-09T17:02:43.415Z,99332.53
2019-05-09T17:05:13.477Z,99335.63
2019-05-09T17:07:43.367Z,99342.05
2019-05-09T17:10:13.347Z,99342.45
2019-05-09T17:12:43.591Z,99337.78
2019-05-09T17:15:17.554Z,99339.58
2019-05-09T17:17:47.719Z,99342.45
2019-05-09T17:20:20.616Z,99345.44
2019-05-09T17:23:11.571Z,99351.23
2019-05-09T17:25:38.596Z,99354.03
2019-05-09T17:28:08.885Z,99354.73
2019-05-09T17:30:38.809Z,99357.14
2019-05-09T17:33:08.791Z,99351.63
2019-05-09T17:35:38.847Z,99357.34
2019-05-09T17:38:08.918Z,99328.97
2019-05-09T17:40:39.422Z,99358.75
2019-05-09T17:43:10.483Z,99360.02
2019-05-09T17:45:42.182Z,99355.95
2019-05-09T17:48:12.155Z,99364.92
2019-05-09T17:50:42.290Z,99370.25
2019-05-09T17:53:12.587Z,99364.55
2019-05-09T17:55:42.429Z,99361.78
2019-05-09T17:58:26.008Z,99368.84
2019-05-09T18:00:44.057Z,99367.27
2019-05-09T18:03:14.340Z,99371.34
2019-05-09T18:05:44.170Z,99379.98
2019-05-09T18:08:14.325Z,99384.11
2019-05-09T18:10:44.478Z,99381.32
2019-05-09T18:13:14.601Z,99385.45
2019-05-09T18:15:45.000Z,99385.38
2019-05-09T18:18:15.657Z,99385.62
2019-05-09T18:20:45.993Z,99384.98
2019-05-09T18:23:17.695Z,99390.30
2019-05-09T18:25:49.357Z,99395.05
2019-05-09T18:28:20.100Z,99396.80
2019-05-09T18:30:50.045Z,99402.02
2019-05-09T18:33:30.095Z,99402.25
2019-05-09T18:35:59.953Z,99402.42
2019-05-09T18:38:33.399Z,99389.70
2019-05-09T18:41:07.012Z,99399.41
2019-05-09T18:43:35.710Z,99402.48
2019-05-09T18:46:08.220Z,99405.16
2019-05-09T18:48:38.244Z,99407.84
2019-05-09T18:51:09.853Z,99413.16
2019-05-09T18:53:40.311Z,99417.58
2019-05-09T18:56:16.077Z,99417.08
2019-05-09T18:58:46.082Z,99418.19
2019-05-09T19:01:15.988Z,99422.61
2019-05-09T19:03:46.757Z,99424.03
2019-05-09T19:06:16.779Z,99422.47
2019-05-09T19:08:46.913Z,99423.50
2019-05-09T19:11:18.258Z,99426.38
2019-05-09T19:13:48.202Z,99430.45
2019-05-09T19:16:26.286Z,99430.32
2019-05-09T19:19:15.406Z,99429.42
2019-05-09T19:21:56.219Z,99436.09
2019-05-09T19:24:26.781Z,99442.39
2019-05-09T19:26:57.127Z,99447.56
2019-05-09T19:29:27.103Z,99450.31
2019-05-09T19:31:58.959Z,99451.30
2019-05-09T19:34:29.480Z,99455.23
2019-05-09T19:36:59.538Z,99457.98
2019-05-09T19:39:29.585Z,99455.59
2019-05-09T19:41:59.696Z,99452.33
2019-05-09T19:44:30.950Z,99474.50
2019-05-09T19:47:01.695Z,99468.27
2019-05-09T19:49:32.266Z,99471.52
2019-05-09T19:52:02.296Z,99474.34
2019-05-09T19:54:32.290Z,99476.28
2019-05-09T19:57:03.147Z,99479.91
2019-05-09T19:59:33.433Z,99481.94
2019-05-09T20:02:03.605Z,99480.00
2019-05-09T20:04:33.817Z,99481.77
2019-05-09T20:07:03.984Z,99490.34
2019-05-09T20:09:40.824Z,99491.81
2019-05-09T20:12:32.077Z,99496.78
2019-05-09T20:15:02.264Z,99503.60
2019-05-09T20:17:32.725Z,99503.13
2019-05-09T20:20:02.901Z,99511.77
2019-05-09T20:22:32.950Z,99513.61
2019-05-09T20:25:02.868Z,99517.61
2019-05-09T20:27:33.450Z,99521.89
2019-05-09T20:30:03.658Z,99522.39
2019-05-09T20:32:33.640Z,99529.80
2019-05-09T20:35:03.884Z,99529.98
2019-05-09T20:37:37.077Z,99529.77
2019-05-09T20:40:08.569Z,99535.91
2019-05-09T20:42:39.245Z,99535.70
2019-05-09T20:45:09.877Z,99537.38
2019-05-09T20:47:39.946Z,99538.42
2019-05-09T20:50:11.609Z,99540.34
2019-05-09T20:52:41.924Z,99539.28
2019-05-09T20:55:12.107Z,99542.51
2019-05-09T20:57:42.107Z,99543.55
2019-05-09T21:00:13.053Z,99548.42
2019-05-09T21:02:43.038Z,99551.23
2019-05-09T21:05:13.615Z,99560.74
2019-05-09T21:07:44.856Z,99559.77
2019-05-09T21:10:16.172Z,99558.69
2019-05-09T21:12:46.391Z,99561.41
2019-05-09T21:15:17.070Z,99560.52
2019-05-09T21:17:47.234Z,99563.81
2019-05-09T21:20:17.484Z,99571.30
2019-05-09T21:22:47.579Z,99570.59
2019-05-09T21:25:18.256Z,99572.94
2019-05-09T21:27:48.504Z,99575.64
2019-05-09T21:30:19.062Z,99569.86
2019-05-09T21:32:49.279Z,99568.88
2019-05-09T21:35:19.401Z,99574.87
2019-05-09T21:37:49.336Z,99580.58
2019-05-09T21:40:20.334Z,99578.75
2019-05-09T21:42:50.953Z,99580.01
2019-05-09T21:45:20.912Z,99580.48
2019-05-09T21:47:51.858Z,99588.28
2019-05-09T21:50:21.819Z,99590.02
2019-05-09T21:52:51.664Z,99586.61
2019-05-09T21:55:21.579Z,99589.32
2019-05-09T21:57:51.597Z,99595.44
2019-05-09T22:00:27.184Z,99597.16
2019-05-09T22:02:58.798Z,99604.61
2019-05-09T22:05:29.038Z,99603.76
2019-05-09T22:07:58.953Z,99605.39
2019-05-09T22:10:29.265Z,99604.31
2019-05-09T22:12:59.161Z,99611.28
2019-05-09T22:15:29.460Z,99607.39
2019-05-09T22:17:59.431Z,99607.06
2019-05-09T22:20:29.694Z,99610.15
2019-05-09T22:22:59.504Z,99610.60
2019-05-09T22:25:29.432Z,99615.35
2019-05-09T22:27:59.275Z,99614.64
2019-05-09T22:30:29.448Z,99620.72
2019-05-09T22:32:59.695Z,99620.72
2019-05-09T22:35:29.609Z,99620.62
2019-05-09T22:37:59.422Z,99621.06
2019-05-09T22:40:29.255Z,99617.83
2019-05-09T22:42:59.149Z,99621.31
2019-05-09T22:45:38.278Z,99621.17
2019-05-09T22:48:08.480Z,99622.34
2019-05-09T22:50:38.392Z,99634.64
2019-05-09T22:53:08.333Z,99626.13
2019-05-09T22:55:38.651Z,99628.17
2019-05-09T22:58:08.968Z,99628.23
2019-05-09T23:00:38.895Z,99627.11
2019-05-09T23:03:09.264Z,99625.55
2019-05-09T23:05:39.229Z,99627.45
2019-05-09T23:08:09.420Z,99631.03
2019-05-09T23:10:39.375Z,99604.57
2019-05-09T23:13:09.185Z,99626.42
2019-05-09T23:15:39.039Z,99627.34
2019-05-09T23:18:09.219Z,99628.13
2019-05-09T23:20:58.205Z,99629.52
2019-05-09T23:23:40.897Z,99628.31
2019-05-09T23:26:12.917Z,99625.17
2019-05-09T23:28:43.349Z,99625.06
2019-05-09T23:31:17.154Z,99625.06
2019-05-09T23:33:47.093Z,99622.72
2019-05-09T23:36:18.474Z,99633.41
2019-05-09T23:39:06.385Z,99627.88
2019-05-09T23:41:36.341Z,99628.16
2019-05-09T23:44:06.323Z,99626.00
2019-05-09T23:46:36.381Z,99627.42
2019-05-09T23:49:07.800Z,99638.66
2019-05-09T23:51:47.403Z,99634.27
2019-05-09T23:54:45.718Z,99639.03
2019-05-09T23:57:26.856Z,99639.84
